Time;durP1;ratioP1;P1;durP2;ratioP2;P2;SDS_P1;SDS_P2;PMS_P1;PMS_P2;Temp;Humidity;BMP_temperature;BMP_pressure;BME280_temperature;BME280_humidity;BME280_pressure;Samples;Min_cycle;Max_cycle;Signal;HPM_P1;HPM_P2
2022/02/05 00:01:22;;;;;;;3.03;2.70;;;;;;;8.07;69.87;95448.94;5073949;28;20214;-87
2022/02/05 00:03:56;;;;;;;3.70;2.90;;;;;;;8.14;69.99;95446.47;5074831;28;20283;-87
2022/02/05 00:06:29;;;;;;;4.90;2.67;;;;;;;8.17;69.59;95449.53;5073436;28;20225;-86
2022/02/05 00:09:04;;;;;;;4.37;2.87;;;;;;;8.18;69.86;95448.56;5074551;28;20275;-85
2022/02/05 00:14:35;;;;;;;4.13;2.60;;;;;;;8.07;70.52;95459.19;5061993;28;20265;-87
2022/02/05 00:20:22;;;;;;;3.93;2.90;;;;;;;8.11;70.60;95463.00;5087214;28;20231;-86
2022/02/05 00:39:29;;;;;;;2.60;2.40;;;;;;;8.09;70.69;95476.94;5087338;28;20277;-85
2022/02/05 00:42:08;;;;;;;2.90;2.60;;;;;;;8.19;71.41;95478.38;5086048;28;20203;-85
2022/02/05 00:44:34;;;;;;;3.00;2.50;;;;;;;8.10;72.54;95492.16;5080074;28;20218;-85
2022/02/05 00:47:01;;;;;;;2.57;2.27;;;;;;;8.07;73.22;95484.03;5085998;28;20200;-85
2022/02/05 00:49:27;;;;;;;2.87;2.33;;;;;;;8.18;73.75;95493.91;5087218;28;20727;-86
2022/02/05 00:51:59;;;;;;;2.90;2.20;;;;;;;8.13;73.83;95481.59;5085923;28;20203;-86
2022/02/05 00:54:28;;;;;;;2.57;2.37;;;;;;;8.15;73.75;95484.78;5086580;28;20311;-85
2022/02/05 00:57:19;;;;;;;2.30;1.90;;;;;;;8.10;73.21;95499.06;5086194;28;20218;-87
2022/02/05 00:59:46;;;;;;;3.07;2.03;;;;;;;8.20;72.98;95515.88;5080092;28;20859;-86
2022/02/05 01:02:12;;;;;;;2.33;2.13;;;;;;;8.20;73.45;95548.41;5086213;28;20193;-85
2022/02/05 01:04:38;;;;;;;1.20;1.10;;;;;;;7.65;71.42;95597.75;5085556;28;20192;-86
2022/02/05 01:07:05;;;;;;;1.60;1.10;;;;;;;7.27;73.19;95588.88;5087212;28;20220;-86
2022/02/05 01:09:33;;;;;;;1.43;1.13;;;;;;;6.79;75.27;95605.63;5087233;28;20216;-86
2022/02/05 01:12:01;;;;;;;1.30;1.20;;;;;;;6.67;76.91;95609.41;5085943;28;20196;-86
2022/02/05 01:14:32;;;;;;;1.53;1.10;;;;;;;6.63;76.99;95605.56;5086756;28;20231;-86
2022/02/05 01:17:03;;;;;;;0.80;0.80;;;;;;;6.64;76.80;95616.59;5085933;28;20201;-87
2022/02/05 01:20:01;;;;;;;0.73;0.73;;;;;;;6.56;76.11;95615.56;5086788;28;20220;-83
2022/02/05 01:22:29;;;;;;;1.30;0.70;;;;;;;6.53;75.43;95622.78;5087810;28;20204;-86
2022/02/05 01:24:57;;;;;;;0.80;0.80;;;;;;;6.48;75.20;95637.75;5085131;28;20227;-82
2022/02/05 01:27:34;;;;;;;1.03;0.87;;;;;;;6.46;75.12;95640.47;5070342;28;20540;-85
2022/02/05 01:30:12;;;;;;;0.80;0.70;;;;;;;6.49;75.13;95644.47;5069501;28;20224;-85
2022/02/05 01:32:45;;;;;;;0.80;0.80;;;;;;;6.48;75.34;95656.47;5073483;28;20211;-86
2022/02/05 01:35:17;;;;;;;0.97;0.83;;;;;;;6.50;75.41;95657.13;5077496;28;20215;-87
2022/02/05 01:49:16;;;;;;;0.80;0.80;;;;;;;6.22;77.32;95679.44;5090056;28;20227;-85
2022/02/05 01:52:05;;;;;;;1.00;0.90;;;;;;;6.18;78.43;95683.22;5076541;28;20197;-85
2022/02/05 01:54:40;;;;;;;1.13;0.80;;;;;;;6.28;78.71;95690.03;5090512;28;20258;-86
2022/02/05 01:57:13;;;;;;;1.60;0.90;;;;;;;6.18;79.78;95690.91;5089723;28;20642;-86
2022/02/05 01:59:53;;;;;;;1.67;1.00;;;;;;;6.25;79.21;95703.91;5090359;28;20235;-85
2022/02/05 02:05:06;;;;;;;1.10;1.03;;;;;;;6.36;79.39;95700.31;5088588;28;20280;-86
2022/02/05 02:10:40;;;;;;;0.90;0.90;;;;;;;6.41;79.15;95721.94;5089627;28;20211;-87
2022/02/05 02:13:42;;;;;;;0.90;0.90;;;;;;;6.42;79.73;95730.41;5088623;28;20231;-86
2022/02/05 02:16:19;;;;;;;0.93;0.90;;;;;;;6.37;79.96;95753.84;5079670;28;21521;-85
2022/02/05 02:18:57;;;;;;;0.90;0.90;;;;;;;6.16;78.41;95748.22;5075748;28;20252;-84
2022/02/05 02:21:33;;;;;;;0.93;0.80;;;;;;;6.00;76.68;95736.09;5075936;28;20307;-84
2022/02/05 02:24:07;;;;;;;1.03;1.00;;;;;;;6.05;76.41;95733.09;5076979;28;20191;-84
2022/02/05 02:26:46;;;;;;;0.90;0.90;;;;;;;6.01;74.75;95747.13;5075322;28;20251;-87
2022/02/05 02:29:23;;;;;;;2.03;1.40;;;;;;;6.05;74.07;95735.66;5088306;28;20717;-86
2022/02/05 02:31:51;;;;;;;1.00;0.90;;;;;;;6.06;72.86;95755.97;5089703;28;20203;-86
2022/02/05 02:34:22;;;;;;;1.43;1.10;;;;;;;6.08;71.65;95766.84;5088703;28;20274;-85
2022/02/05 02:36:54;;;;;;;2.00;0.80;;;;;;;6.13;70.50;95767.25;5089764;28;20244;-89
2022/02/05 02:39:29;;;;;;;0.77;0.77;;;;;;;6.11;69.93;95769.13;5085500;28;20272;-85
2022/02/05 02:42:01;;;;;;;0.80;0.80;;;;;;;6.00;68.46;95764.19;5088305;28;20196;-87
2022/02/05 02:44:27;;;;;;;0.70;0.70;;;;;;;6.03;68.42;95765.66;5085654;28;20304;-87
2022/02/05 02:46:53;;;;;;;1.00;0.70;;;;;;;5.94;67.46;95772.47;5087492;28;20212;-87
2022/02/05 02:49:34;;;;;;;0.80;0.80;;;;;;;6.00;67.71;95774.44;5088912;28;20230;-85
2022/02/05 02:57:31;;;;;;;0.70;0.70;;;;;;;5.94;67.10;95792.91;5089276;28;20207;-86
2022/02/05 03:00:01;;;;;;;0.67;0.67;;;;;;;5.86;65.96;95801.25;5088357;28;20208;-85
2022/02/05 03:02:28;;;;;;;0.70;0.70;;;;;;;5.92;66.15;95801.66;5075372;28;20189;-87
2022/02/05 03:04:55;;;;;;;0.70;0.70;;;;;;;5.97;65.85;95813.03;5073725;28;20220;-87
2022/02/05 03:07:24;;;;;;;0.60;0.60;;;;;;;5.95;65.63;95809.84;5075334;28;20200;-86
2022/02/05 03:09:51;;;;;;;0.70;0.70;;;;;;;6.01;65.61;95813.56;5073984;28;20213;-86
2022/02/05 03:12:19;;;;;;;0.70;0.70;;;;;;;6.06;65.54;95819.88;5079787;28;20196;-86
2022/02/05 03:14:46;;;;;;;0.77;0.70;;;;;;;5.98;65.17;95824.06;5092213;28;20235;-86
2022/02/05 03:17:17;;;;;;;0.70;0.70;;;;;;;5.98;66.30;95826.63;5083283;28;20204;-85
2022/02/05 03:19:46;;;;;;;0.80;0.80;;;;;;;5.77;65.90;95834.50;5074025;28;20302;-86
2022/02/05 03:22:13;;;;;;;1.33;1.10;;;;;;;5.70;65.95;95833.44;5075145;28;20212;-87
2022/02/05 03:24:41;;;;;;;0.90;0.90;;;;;;;5.75;65.31;95839.75;5083223;28;20244;-86
2022/02/05 03:27:08;;;;;;;1.00;0.77;;;;;;;5.79;66.20;95845.38;5087136;28;20203;-87
2022/02/05 03:29:36;;;;;;;0.77;0.77;;;;;;;5.88;65.98;95853.03;5088530;28;20212;-86
2022/02/05 03:32:02;;;;;;;0.80;0.80;;;;;;;5.89;66.12;95859.75;5087055;28;20188;-85
2022/02/05 03:34:29;;;;;;;0.70;0.70;;;;;;;5.83;66.03;95870.50;5088864;28;20208;-87
2022/02/05 03:36:55;;;;;;;0.70;0.70;;;;;;;5.67;64.32;95872.03;5088037;28;20563;-85
2022/02/05 03:39:25;;;;;;;0.70;0.70;;;;;;;5.67;64.49;95874.59;5087627;28;20232;-86
2022/02/05 03:41:52;;;;;;;0.90;0.90;;;;;;;5.58;63.66;95881.31;5088006;28;20544;-87
2022/02/05 03:44:19;;;;;;;0.83;0.77;;;;;;;5.66;64.39;95891.66;5086995;28;20203;-87
2022/02/05 03:46:48;;;;;;;0.87;0.83;;;;;;;5.65;65.03;95891.81;5087824;28;20220;-85
2022/02/05 03:49:17;;;;;;;0.77;0.77;;;;;;;5.60;65.44;95891.41;5086218;28;20255;-87
2022/02/05 03:51:44;;;;;;;1.00;0.90;;;;;;;5.55;66.28;95897.75;5088179;28;20655;-88
2022/02/05 03:54:10;;;;;;;1.07;0.80;;;;;;;5.68;66.55;95906.88;5085709;28;20223;-86
2022/02/05 03:56:36;;;;;;;0.80;0.80;;;;;;;5.74;66.03;95907.13;5087151;28;20228;-85
2022/02/05 03:59:04;;;;;;;1.00;0.90;;;;;;;5.77;66.23;95913.72;5074358;28;20223;-87
2022/02/05 04:01:31;;;;;;;0.70;0.70;;;;;;;5.70;65.85;95916.00;5088229;28;20208;-85
2022/02/05 04:03:57;;;;;;;0.90;0.90;;;;;;;5.71;65.54;95921.91;5077867;28;20578;-86
2022/02/05 04:06:23;;;;;;;0.90;0.90;;;;;;;5.75;65.62;95929.19;5073498;28;20224;-85
2022/02/05 04:08:52;;;;;;;0.80;0.80;;;;;;;5.77;64.92;95929.81;5073199;28;20217;-87
2022/02/05 04:11:30;;;;;;;1.00;0.90;;;;;;;5.76;64.82;95937.66;5074461;28;20807;-82
2022/02/05 04:16:43;;;;;;;0.80;0.80;;;;;;;5.57;65.03;95947.91;5082791;28;20277;-86
2022/02/05 04:19:09;;;;;;;1.27;0.90;;;;;;;5.54;65.11;95959.19;5085495;28;20754;-86
2022/02/05 04:21:36;;;;;;;1.60;1.00;;;;;;;5.56;64.53;95954.75;5073212;28;20556;-82
2022/02/05 04:24:02;;;;;;;0.80;0.80;;;;;;;5.51;64.46;95962.81;5074372;28;20196;-86
2022/02/05 04:26:30;;;;;;;1.20;1.10;;;;;;;5.58;64.94;95964.84;5072654;28;20221;-86
2022/02/05 04:28:57;;;;;;;0.80;0.80;;;;;;;5.64;65.01;95959.16;5072693;28;20209;-85
2022/02/05 04:31:24;;;;;;;1.00;1.00;;;;;;;5.68;64.84;95971.53;5073795;28;20184;-85
2022/02/05 04:33:52;;;;;;;1.60;0.97;;;;;;;5.66;64.11;95975.97;5082854;28;20226;-86
2022/02/05 04:36:19;;;;;;;2.33;0.97;;;;;;;5.66;63.96;95982.81;5074011;28;20239;-87
2022/02/05 04:38:48;;;;;;;0.90;0.90;;;;;;;5.62;63.90;95984.84;5073222;28;20295;-85
2022/02/05 04:41:20;;;;;;;1.53;1.00;;;;;;;5.60;63.04;95985.91;5074021;28;22078;-86
2022/02/05 04:44:01;;;;;;;1.03;0.90;;;;;;;5.62;63.10;95984.84;5074856;28;20197;-86
2022/02/05 04:49:30;;;;;;;0.83;0.80;;;;;;;5.52;63.35;95999.38;5087715;28;20246;-87
2022/02/05 04:52:22;;;;;;;2.00;1.20;;;;;;;5.60;63.12;96003.78;5078079;28;20216;-87
2022/02/05 04:55:08;;;;;;;1.10;1.00;;;;;;;5.64;63.40;96008.50;5084965;28;20725;-87
2022/02/05 04:57:46;;;;;;;1.23;0.80;;;;;;;5.68;63.00;96004.75;5076008;28;20193;-87
2022/02/05 05:00:26;;;;;;;0.90;0.90;;;;;;;5.63;62.86;96006.88;5083869;28;20208;-87
2022/02/05 05:03:09;;;;;;;0.90;0.90;;;;;;;5.59;63.15;96015.75;5087661;28;20188;-83
2022/02/05 05:06:00;;;;;;;0.80;0.80;;;;;;;5.60;63.27;96021.66;5078657;28;20226;-87
2022/02/05 05:08:44;;;;;;;1.37;1.00;;;;;;;5.63;63.29;96021.41;5091236;28;20428;-87
2022/02/05 05:11:40;;;;;;;1.17;0.97;;;;;;;5.60;63.41;96021.66;5080377;28;20280;-87
2022/02/05 05:19:41;;;;;;;1.23;1.10;;;;;;;5.51;64.39;96030.97;5067182;28;20247;-86
2022/02/05 05:22:10;;;;;;;1.40;1.30;;;;;;;5.38;65.00;96038.09;5092162;28;20188;-87
2022/02/05 05:24:36;;;;;;;1.40;1.30;;;;;;;5.34;64.95;96039.28;5075985;28;20200;-87
2022/02/05 05:27:03;;;;;;;1.37;1.20;;;;;;;5.36;65.15;96042.50;5075963;28;20193;-87
2022/02/05 05:29:29;;;;;;;2.00;1.10;;;;;;;5.42;65.00;96049.63;5075112;28;20212;-87
2022/02/05 05:31:58;;;;;;;2.40;1.40;;;;;;;5.43;65.32;96051.25;5075851;28;20200;-87
2022/02/05 05:34:25;;;;;;;1.60;1.10;;;;;;;5.45;65.30;96052.72;5077292;28;20213;-87
2022/02/05 05:36:53;;;;;;;1.30;1.17;;;;;;;5.44;65.46;96056.22;5093148;28;20203;-87
2022/02/05 05:39:21;;;;;;;1.40;1.30;;;;;;;5.37;65.71;96057.72;5090887;28;20224;-87
2022/02/05 05:41:47;;;;;;;1.50;1.40;;;;;;;5.40;65.90;96059.16;5093013;28;20199;-86
2022/02/05 05:47:13;;;;;;;1.80;1.30;;;;;;;5.36;66.19;96061.19;5047461;28;20220;-87
2022/02/05 05:49:56;;;;;;;1.60;1.47;;;;;;;5.36;66.26;96053.53;5086117;28;20224;-87
2022/02/05 05:52:24;;;;;;;1.60;1.50;;;;;;;5.31;66.67;96062.53;5090965;28;20253;-85
2022/02/05 05:54:52;;;;;;;2.07;1.53;;;;;;;5.27;66.34;96064.53;5091967;28;20232;-87
2022/02/05 05:57:18;;;;;;;1.53;1.43;;;;;;;5.23;67.09;96063.16;5091018;28;20207;-86
2022/02/05 05:59:45;;;;;;;2.20;1.80;;;;;;;5.19;66.96;96067.75;5091909;28;20729;-83
2022/02/05 06:02:11;;;;;;;1.63;1.53;;;;;;;5.17;67.45;96066.28;5090894;28;20193;-86
2022/02/05 06:04:38;;;;;;;2.13;1.50;;;;;;;5.08;67.79;96065.28;5079411;28;20193;-83
2022/02/05 06:07:05;;;;;;;2.10;1.70;;;;;;;5.03;67.95;96064.88;5080361;28;20197;-88
2022/02/05 06:09:32;;;;;;;1.80;1.70;;;;;;;5.00;68.00;96075.38;5078953;28;20270;-87
2022/02/05 06:12:04;;;;;;;1.77;1.67;;;;;;;5.04;68.12;96079.25;5077185;28;20220;-86
2022/02/05 06:14:30;;;;;;;2.60;1.83;;;;;;;5.08;67.54;96084.91;5090489;28;20231;-88
2022/02/05 06:17:03;;;;;;;2.10;1.67;;;;;;;5.07;67.39;96089.19;5090988;28;20271;-87
2022/02/05 06:19:29;;;;;;;1.70;1.60;;;;;;;5.11;67.39;96094.84;5089953;28;20220;-87
2022/02/05 06:21:56;;;;;;;2.70;1.77;;;;;;;5.06;67.18;96079.94;5091660;28;20203;-87
2022/02/05 06:24:25;;;;;;;1.97;1.70;;;;;;;5.07;67.15;96091.75;5089481;28;20201;-86
2022/02/05 06:26:54;;;;;;;3.13;2.77;;;;;;;5.06;67.04;96094.44;5083892;28;20197;-87
2022/02/05 06:29:27;;;;;;;1.73;1.63;;;;;;;4.95;66.66;96097.91;5077239;28;20208;-86
2022/02/05 06:31:53;;;;;;;3.20;1.93;;;;;;;4.88;66.67;96107.00;5077232;28;20200;-86
2022/02/05 06:34:20;;;;;;;2.23;1.67;;;;;;;4.84;67.01;96103.09;5086470;28;20220;-85
2022/02/05 06:36:46;;;;;;;2.13;1.67;;;;;;;5.30;89.58;96119.63;5088673;28;20260;-84
2022/02/05 06:39:13;;;;;;;1.60;1.50;;;;;;;5.40;67.48;96120.44;5088858;28;20215;-87
2022/02/05 06:41:39;;;;;;;2.37;2.00;;;;;;;5.21;66.43;96123.75;5091280;28;20192;-86
2022/02/05 06:44:06;;;;;;;1.60;1.50;;;;;;;5.07;66.49;96132.59;5090586;28;20207;-87
2022/02/05 06:46:34;;;;;;;3.40;1.80;;;;;;;5.01;66.56;96132.28;5089795;28;20221;-87
2022/02/05 06:49:00;;;;;;;1.60;1.50;;;;;;;4.91;66.90;96141.66;5090020;28;20224;-87
2022/02/05 06:51:26;;;;;;;2.10;1.77;;;;;;;4.79;67.07;96146.84;5073160;28;20197;-87
2022/02/05 06:53:53;;;;;;;1.80;1.70;;;;;;;4.79;67.30;96153.69;5072762;28;20188;-87
2022/02/05 06:56:19;;;;;;;1.70;1.60;;;;;;;4.73;67.34;96155.00;5072606;28;20236;-86
2022/02/05 06:58:46;;;;;;;1.60;1.50;;;;;;;4.75;66.66;96155.69;5073013;28;20213;-87
2022/02/05 07:01:12;;;;;;;1.60;1.47;;;;;;;4.82;66.49;96150.88;5072618;28;20193;-88
2022/02/05 07:03:40;;;;;;;2.70;1.60;;;;;;;4.83;66.29;96139.72;5077718;28;20195;-87
2022/02/05 07:06:07;;;;;;;2.40;1.43;;;;;;;4.81;66.38;96147.50;5074207;28;20236;-88
2022/02/05 07:08:33;;;;;;;2.20;1.77;;;;;;;4.93;65.95;96145.69;5076161;28;20274;-87
2022/02/05 07:11:00;;;;;;;1.80;1.70;;;;;;;5.26;64.97;96144.59;5076402;28;20189;-87
2022/02/05 07:13:26;;;;;;;2.57;1.73;;;;;;;5.55;63.54;96153.16;5081467;28;20576;-87
2022/02/05 07:16:03;;;;;;;1.60;1.50;;;;;;;5.79;62.01;96162.19;5088282;28;20224;-86
2022/02/05 07:18:39;;;;;;;2.37;1.60;;;;;;;6.19;61.00;96164.66;5078660;28;20216;-86
2022/02/05 07:21:11;;;;;;;2.00;1.80;;;;;;;6.57;59.75;96162.06;5085845;28;20192;-84
2022/02/05 07:23:53;;;;;;;3.57;1.80;;;;;;;6.78;58.12;96171.31;5073949;28;20284;-83
2022/02/05 07:29:16;;;;;;;1.93;1.80;;;;;;;7.66;56.05;96178.50;5083877;28;20300;-83
2022/02/05 07:31:48;;;;;;;2.33;1.50;;;;;;;8.15;54.61;96168.72;5087091;28;20196;-85
2022/02/05 07:34:15;;;;;;;2.37;1.87;;;;;;;8.40;53.33;96175.72;5077784;28;20668;-86
2022/02/05 07:36:44;;;;;;;2.60;1.80;;;;;;;8.56;53.08;96172.47;5081219;28;20598;-82
2022/02/05 07:39:11;;;;;;;1.77;1.40;;;;;;;8.70;53.16;96178.81;5074495;28;20221;-82
2022/02/05 07:41:40;;;;;;;1.87;1.60;;;;;;;8.74;52.99;96178.38;5075750;28;20196;-87
2022/02/05 07:44:11;;;;;;;1.70;1.60;;;;;;;8.83;52.21;96181.81;5091662;28;20196;-87
2022/02/05 07:46:38;;;;;;;2.67;2.47;;;;;;;8.33;52.74;96184.94;5091449;28;20235;-87
2022/02/05 07:49:05;;;;;;;3.30;2.90;;;;;;;7.62;54.45;96184.88;5091214;28;20254;-87
2022/02/05 07:51:31;;;;;;;2.53;2.10;;;;;;;7.05;56.96;96196.97;5091936;28;20206;-88
2022/02/05 07:53:59;;;;;;;1.73;1.63;;;;;;;6.74;57.83;96209.16;5086639;28;20197;-87
2022/02/05 07:56:27;;;;;;;1.60;1.50;;;;;;;6.53;57.56;96209.34;5071149;28;20227;-88
2022/02/05 07:58:54;;;;;;;1.70;1.60;;;;;;;6.30;58.07;96204.63;5071357;28;20223;-88
2022/02/05 08:01:20;;;;;;;1.93;1.43;;;;;;;6.20;58.68;96207.19;5071616;28;20208;-86
2022/02/05 08:03:47;;;;;;;1.93;1.50;;;;;;;6.09;59.04;96210.69;5071490;28;20208;-84
2022/02/05 08:06:16;;;;;;;1.60;1.50;;;;;;;6.11;59.18;96210.56;5071476;28;20199;-86
2022/02/05 08:08:44;;;;;;;2.80;1.60;;;;;;;6.46;58.36;96213.38;5070995;28;20730;-87
2022/02/05 08:11:16;;;;;;;3.03;1.70;;;;;;;6.97;57.20;96203.72;5071095;28;20208;-87
2022/02/05 08:13:44;;;;;;;1.53;1.43;;;;;;;7.56;56.41;96208.50;5071227;28;20595;-87
2022/02/05 08:16:24;;;;;;;2.90;1.60;;;;;;;7.87;54.60;96217.53;5071147;28;20252;-87
2022/02/05 08:18:50;;;;;;;2.33;1.70;;;;;;;8.27;54.48;96226.56;5070391;28;20236;-86
2022/02/05 08:21:17;;;;;;;2.00;1.60;;;;;;;8.53;53.59;96230.03;5070485;28;20215;-86
2022/02/05 08:23:43;;;;;;;2.60;1.60;;;;;;;8.82;51.66;96240.06;5089308;28;20203;-86
2022/02/05 08:26:11;;;;;;;1.80;1.40;;;;;;;8.44;51.76;96237.81;5092165;28;20204;-87
2022/02/05 08:28:38;;;;;;;1.63;1.20;;;;;;;7.89;52.10;96236.09;5090377;28;20242;-87
2022/02/05 08:31:04;;;;;;;1.53;1.20;;;;;;;7.97;52.55;96232.84;5093086;28;20386;-86
2022/02/05 08:33:31;;;;;;;1.50;1.40;;;;;;;8.37;51.86;96231.66;5110140;28;20210;-87
2022/02/05 08:35:57;;;;;;;1.57;1.47;;;;;;;8.55;50.30;96235.81;5104656;28;20579;-87
2022/02/05 08:38:24;;;;;;;2.70;1.50;;;;;;;8.72;50.47;96234.19;5073526;28;20267;-87
2022/02/05 08:40:51;;;;;;;2.50;1.70;;;;;;;8.94;49.30;96240.59;5072553;28;20193;-87
2022/02/05 08:43:19;;;;;;;3.70;1.30;;;;;;;8.96;49.60;96236.13;5084953;28;20208;-87
2022/02/05 08:45:45;;;;;;;2.93;1.30;;;;;;;9.40;55.18;96246.38;5075857;28;20661;-84
2022/02/05 08:48:12;;;;;;;2.00;1.37;;;;;;;10.02;55.62;96255.44;5069898;28;20233;-84
2022/02/05 08:50:41;;;;;;;3.43;2.20;;;;;;;10.29;49.86;96249.28;5071698;28;20196;-87
2022/02/05 08:53:09;;;;;;;1.87;1.67;;;;;;;10.25;47.40;96250.56;5072547;28;20578;-85
2022/02/05 08:55:35;;;;;;;1.50;1.40;;;;;;;10.00;46.30;96253.06;5075600;28;20265;-85
2022/02/05 08:58:07;;;;;;;2.87;1.83;;;;;;;9.38;46.81;96250.84;5092128;28;20223;-84
2022/02/05 09:00:44;;;;;;;2.43;1.37;;;;;;;9.35;47.20;96251.94;5092407;28;20295;-86
2022/02/05 09:03:14;;;;;;;3.47;1.33;;;;;;;9.30;48.24;96259.31;5092218;28;20203;-85
2022/02/05 09:05:45;;;;;;;2.20;1.60;;;;;;;8.85;48.53;96264.63;5087827;28;20227;-85
2022/02/05 09:08:21;;;;;;;3.20;1.60;;;;;;;8.35;49.36;96267.72;5079220;28;20235;-84
2022/02/05 09:13:51;;;;;;;2.93;2.03;;;;;;;7.66;50.97;96262.28;5077743;28;20250;-86
2022/02/05 09:16:19;;;;;;;2.37;2.07;;;;;;;7.60;51.55;96269.59;5070886;28;20266;-84
2022/02/05 09:18:47;;;;;;;2.87;1.70;;;;;;;7.48;51.60;96262.22;5069762;28;20252;-86
2022/02/05 09:21:13;;;;;;;2.97;1.60;;;;;;;7.40;51.76;96265.47;5070494;28;20232;-83
2022/02/05 09:23:43;;;;;;;3.47;1.60;;;;;;;7.30;52.16;96269.03;5070699;28;20211;-83
2022/02/05 09:26:11;;;;;;;1.93;1.40;;;;;;;7.35;52.41;96259.16;5070644;28;20196;-84
2022/02/05 09:28:37;;;;;;;2.83;1.47;;;;;;;7.32;52.00;96261.97;5089995;28;20755;-85
2022/02/05 09:31:24;;;;;;;2.53;1.50;;;;;;;7.27;52.30;96260.66;5090083;28;20196;-84
2022/02/05 09:33:52;;;;;;;2.07;1.63;;;;;;;7.31;52.63;96260.41;5089843;28;20215;-86
2022/02/05 09:36:19;;;;;;;2.10;1.30;;;;;;;7.09;51.87;96271.75;5090188;28;20220;-84
2022/02/05 09:38:45;;;;;;;2.47;1.47;;;;;;;6.83;52.64;96271.53;5089524;28;20258;-86
2022/02/05 09:41:12;;;;;;;3.03;1.50;;;;;;;6.87;52.37;96270.31;5089633;28;20200;-85
2022/02/05 09:43:38;;;;;;;1.80;1.70;;;;;;;6.94;53.11;96279.03;5083537;28;20215;-85
2022/02/05 09:46:05;;;;;;;3.03;1.70;;;;;;;7.09;52.75;96275.13;5083140;28;21972;-85
2022/02/05 09:48:32;;;;;;;3.50;1.50;;;;;;;7.40;52.20;96275.72;5084064;28;20232;-86
2022/02/05 09:51:05;;;;;;;14.33;10.33;;;;;;;7.51;51.73;96272.16;5070244;28;20201;-85
2022/02/05 09:53:32;;;;;;;3.57;2.00;;;;;;;7.79;50.69;96276.38;5082228;28;20197;-86
2022/02/05 09:55:59;;;;;;;1.63;1.30;;;;;;;7.78;50.54;96274.75;5093855;28;20227;-85
2022/02/05 09:58:25;;;;;;;2.13;1.43;;;;;;;7.85;49.88;96280.13;5092657;28;20235;-84
2022/02/05 10:01:03;;;;;;;1.90;1.40;;;;;;;7.96;48.80;96279.94;5092816;28;20204;-85
2022/02/05 10:03:33;;;;;;;1.67;1.50;;;;;;;7.85;49.28;96287.81;5072787;28;20207;-85
2022/02/05 10:06:12;;;;;;;3.10;1.30;;;;;;;8.06;49.25;96290.16;5086000;28;20224;-85
2022/02/05 10:08:40;;;;;;;2.63;1.70;;;;;;;8.17;47.97;96287.38;5092438;28;20235;-85
2022/02/05 10:11:08;;;;;;;2.83;1.33;;;;;;;8.39;48.05;96299.03;5093598;28;20208;-85
2022/02/05 10:13:34;;;;;;;1.63;1.30;;;;;;;8.47;46.88;96279.38;5093695;28;20200;-86
2022/02/05 10:16:01;;;;;;;1.33;1.23;;;;;;;8.30;46.59;96280.13;5093850;28;20232;-85
2022/02/05 10:18:28;;;;;;;1.67;1.57;;;;;;;8.49;46.22;96274.91;5093077;28;20230;-84
2022/02/05 10:20:56;;;;;;;1.73;1.20;;;;;;;8.80;45.85;96272.78;5094220;28;20204;-85
2022/02/05 10:23:24;;;;;;;2.87;1.20;;;;;;;8.92;45.46;96275.91;5093566;28;20697;-85
2022/02/05 10:25:53;;;;;;;1.67;1.30;;;;;;;9.08;45.47;96272.66;5094392;28;20204;-85
2022/02/05 10:28:20;;;;;;;1.47;1.20;;;;;;;8.64;44.38;96263.19;5092449;28;20232;-84
2022/02/05 10:30:49;;;;;;;3.07;1.33;;;;;;;8.74;44.29;96275.13;5093839;28;20239;-86
2022/02/05 10:33:20;;;;;;;2.53;1.20;;;;;;;8.88;44.13;96277.97;5093116;28;20211;-85
2022/02/05 10:35:52;;;;;;;3.37;2.00;;;;;;;8.85;43.63;96275.69;5093268;28;20224;-85
2022/02/05 10:44:11;;;;;;;1.57;1.20;;;;;;;8.91;43.83;96266.59;5085575;28;20207;-84
2022/02/05 10:46:42;;;;;;;3.33;1.00;;;;;;;9.11;43.47;96262.88;5089895;28;20256;-85
2022/02/05 10:49:09;;;;;;;1.90;1.20;;;;;;;9.35;43.32;96263.03;5091783;28;20235;-86
2022/02/05 10:51:45;;;;;;;3.50;1.27;;;;;;;9.24;42.68;96267.59;5092070;28;20200;-85
2022/02/05 10:54:21;;;;;;;2.50;1.10;;;;;;;9.22;42.14;96259.28;5087573;28;20203;-86
2022/02/05 10:57:05;;;;;;;1.17;1.07;;;;;;;9.23;41.79;96268.59;5081845;28;20320;-85
2022/02/05 11:05:39;;;;;;;1.60;1.10;;;;;;;9.33;41.94;96270.09;5122971;28;20205;-84
2022/02/05 11:08:06;;;;;;;1.87;1.20;;;;;;;8.89;42.34;96264.16;5109756;27;20224;-86
2022/02/05 11:13:53;;;;;;;3.23;1.20;;;;;;;9.11;43.22;96255.16;5004931;28;20217;-84
2022/02/05 11:19:05;;;;;;;1.53;1.27;;;;;;;9.35;42.27;96259.66;5052637;28;20316;-84
2022/02/05 11:21:31;;;;;;;3.87;1.27;;;;;;;9.16;41.53;96258.09;5029156;28;20222;-84
2022/02/05 11:24:02;;;;;;;1.57;1.07;;;;;;;9.35;41.84;96259.66;5028278;28;20280;-84
2022/02/05 11:26:30;;;;;;;2.57;1.13;;;;;;;9.41;41.05;96256.50;5026446;28;20191;-84
2022/02/05 11:28:58;;;;;;;2.30;1.17;;;;;;;9.50;40.57;96244.47;5019972;28;20233;-84
2022/02/05 11:31:31;;;;;;;3.33;1.20;;;;;;;9.50;40.80;96241.91;5026668;28;20573;-85
2022/02/05 11:34:22;;;;;;;2.07;0.97;;;;;;;9.52;41.03;96235.66;5026280;28;20190;-85
2022/02/05 11:37:00;;;;;;;1.80;1.17;;;;;;;9.41;40.58;96247.97;5025086;28;20693;-84
2022/02/05 11:39:26;;;;;;;2.50;1.10;;;;;;;9.44;41.32;96240.75;5022616;28;20234;-84
2022/02/05 11:41:53;;;;;;;3.10;1.20;;;;;;;9.66;41.33;96239.41;5023307;28;20222;-84
2022/02/05 11:44:24;;;;;;;1.43;1.13;;;;;;;9.63;40.66;96237.13;5027861;28;20657;-84
2022/02/05 11:47:25;;;;;;;3.07;1.40;;;;;;;9.69;40.60;96255.34;5027983;28;20195;-85
2022/02/05 11:50:24;;;;;;;4.00;1.37;;;;;;;9.28;40.53;96249.19;5025058;28;20233;-85
2022/02/05 11:52:59;;;;;;;2.67;1.20;;;;;;;8.97;41.67;96240.31;5025307;28;20569;-85
2022/02/05 11:55:37;;;;;;;5.70;2.37;;;;;;;8.86;42.18;96251.63;5015013;28;20282;-83
2022/02/05 11:58:05;;;;;;;3.87;1.93;;;;;;;8.98;42.12;96242.75;5025766;28;20233;-85
2022/02/05 12:00:35;;;;;;;2.40;1.33;;;;;;;9.03;41.99;96239.72;5027015;28;20293;-84
2022/02/05 12:03:17;;;;;;;1.87;1.10;;;;;;;9.12;42.26;96249.09;5018717;28;20205;-84
2022/02/05 12:05:54;;;;;;;1.83;1.10;;;;;;;9.15;41.73;96248.78;5024406;28;20201;-85
2022/02/05 12:08:26;;;;;;;2.27;1.20;;;;;;;9.33;42.34;96246.16;5023766;28;20234;-84
2022/02/05 12:10:56;;;;;;;1.90;1.30;;;;;;;9.43;42.96;96241.69;5024177;28;20751;-84
2022/02/05 12:13:26;;;;;;;3.37;1.33;;;;;;;9.60;41.25;96238.28;5015949;28;20199;-85
2022/02/05 12:16:21;;;;;;;1.93;1.00;;;;;;;9.79;40.89;96234.66;5015697;28;20202;-84
2022/02/05 12:19:10;;;;;;;1.77;1.37;;;;;;;9.87;40.73;96231.28;5010070;28;20689;-83
2022/02/05 12:21:59;;;;;;;2.23;1.40;;;;;;;10.15;40.71;96237.00;5011307;28;20309;-83
2022/02/05 12:24:39;;;;;;;1.60;1.20;;;;;;;10.44;40.19;96239.97;5011718;28;20195;-84
2022/02/05 12:27:30;;;;;;;3.20;1.20;;;;;;;10.65;40.13;96235.16;5012019;28;20246;-83
2022/02/05 12:30:36;;;;;;;3.53;1.20;;;;;;;10.61;39.56;96228.72;5010090;28;20821;-84
2022/02/05 12:33:04;;;;;;;2.17;1.23;;;;;;;10.67;38.92;96225.50;5010855;28;20191;-84
2022/02/05 12:35:32;;;;;;;6.40;3.13;;;;;;;10.58;38.96;96226.44;5010956;28;20191;-83
2022/02/05 12:38:02;;;;;;;2.97;2.30;;;;;;;10.44;38.99;96234.00;5011218;28;20809;-83
2022/02/05 12:40:30;;;;;;;1.47;1.17;;;;;;;10.52;38.58;96234.03;5010916;28;20191;-84
2022/02/05 12:42:57;;;;;;;1.67;1.10;;;;;;;10.65;39.45;96234.34;5010882;28;20211;-83
2022/02/05 12:45:36;;;;;;;2.20;1.10;;;;;;;10.59;38.99;96234.97;5011008;28;20198;-84
2022/02/05 12:48:06;;;;;;;1.40;1.30;;;;;;;10.56;39.14;96236.13;5004638;28;20368;-84
2022/02/05 12:50:33;;;;;;;1.70;1.07;;;;;;;10.74;38.84;96233.41;5014364;28;20197;-83
2022/02/05 12:53:01;;;;;;;1.53;1.17;;;;;;;10.59;37.76;96233.22;5011056;28;20203;-83
2022/02/05 12:55:33;;;;;;;4.00;1.20;;;;;;;10.47;38.07;96223.41;5009632;28;20217;-83
2022/02/05 12:58:00;;;;;;;3.87;1.20;;;;;;;10.67;38.28;96214.38;5010953;28;20230;-84
2022/02/05 13:00:26;;;;;;;2.10;1.17;;;;;;;10.80;38.38;96217.28;5009750;28;20701;-83
2022/02/05 13:02:53;;;;;;;1.53;1.20;;;;;;;10.96;37.71;96217.28;5011993;28;20218;-84
2022/02/05 13:05:30;;;;;;;2.30;1.43;;;;;;;10.88;38.23;96201.00;5014671;28;20206;-84
2022/02/05 13:07:58;;;;;;;1.53;1.13;;;;;;;10.87;37.32;96201.97;5019464;28;20236;-83
2022/02/05 13:10:26;;;;;;;2.37;1.30;;;;;;;10.88;37.61;96199.25;5038506;28;20735;-83
2022/02/05 13:12:57;;;;;;;1.10;1.00;;;;;;;10.97;37.39;96187.94;5029968;28;20194;-84
2022/02/05 13:15:26;;;;;;;2.70;1.30;;;;;;;10.95;37.28;96177.03;5031690;28;20198;-84
2022/02/05 13:18:11;;;;;;;3.07;1.23;;;;;;;10.77;37.74;96173.03;5030698;28;20737;-83
2022/02/05 13:26:16;;;;;;;1.63;1.30;;;;;;;11.06;38.97;96181.81;5034237;28;20782;-84
2022/02/05 13:28:50;;;;;;;1.83;1.23;;;;;;;11.21;38.28;96178.56;5030804;28;20237;-83